sensor_id;sensor_type;location;lat;lon;timestamp;pressure;altitude;pressure_sealevel;temperature;humidity
74524;BME280;63074;44.696;10.358;2024-03-02T00:00:23;98995.78;;;37.30;33.24
74524;BME280;63074;44.696;10.358;2024-03-02T00:02:50;98997.69;;;37.33;33.39
74524;BME280;63074;44.696;10.358;2024-03-02T00:05:21;99002.69;;;37.25;33.13
74524;BME280;63074;44.696;10.358;2024-03-02T00:08:08;99007.25;;;37.03;33.53
74524;BME280;63074;44.696;10.358;2024-03-02T00:10:38;99002.56;;;37.45;33.14
74524;BME280;63074;44.696;10.358;2024-03-02T00:13:08;98998.19;;;37.44;33.06
74524;BME280;63074;44.696;10.358;2024-03-02T00:15:40;99008.91;;;37.33;33.43
74524;BME280;63074;44.696;10.358;2024-03-02T00:18:12;99004.75;;;37.54;33.21
74524;BME280;63074;44.696;10.358;2024-03-02T00:20:39;99011.09;;;37.70;32.69
74524;BME280;63074;44.696;10.358;2024-03-02T00:23:07;99009.69;;;37.78;32.76
74524;BME280;63074;44.696;10.358;2024-03-02T00:28:04;99016.44;;;37.94;32.68
74524;BME280;63074;44.696;10.358;2024-03-02T00:33:10;99012.69;;;38.26;32.30
74524;BME280;63074;44.696;10.358;2024-03-02T00:35:37;99020.19;;;38.16;32.61
74524;BME280;63074;44.696;10.358;2024-03-02T00:38:07;99023.31;;;37.47;33.27
74524;BME280;63074;44.696;10.358;2024-03-02T00:40:33;99016.69;;;37.25;33.35
74524;BME280;63074;44.696;10.358;2024-03-02T00:43:00;99021.03;;;38.00;32.89
74524;BME280;63074;44.696;10.358;2024-03-02T00:45:27;99025.25;;;38.21;32.34
74524;BME280;63074;44.696;10.358;2024-03-02T00:47:54;99017.84;;;38.14;32.29
74524;BME280;63074;44.696;10.358;2024-03-02T00:50:20;99011.63;;;38.07;32.40
74524;BME280;63074;44.696;10.358;2024-03-02T00:52:47;99016.06;;;38.21;32.36
74524;BME280;63074;44.696;10.358;2024-03-02T00:55:16;99017.75;;;38.43;31.79
74524;BME280;63074;44.696;10.358;2024-03-02T00:57:43;99017.25;;;38.07;32.18
74524;BME280;63074;44.696;10.358;2024-03-02T01:00:10;99022.13;;;38.82;31.46
74524;BME280;63074;44.696;10.358;2024-03-02T01:02:38;99024.72;;;38.51;31.89
74524;BME280;63074;44.696;10.358;2024-03-02T01:05:04;99019.66;;;38.72;31.88
74524;BME280;63074;44.696;10.358;2024-03-02T01:07:31;99010.88;;;38.19;32.31
74524;BME280;63074;44.696;10.358;2024-03-02T01:09:57;99024.03;;;37.80;32.77
74524;BME280;63074;44.696;10.358;2024-03-02T01:12:23;99019.22;;;38.35;32.31
74524;BME280;63074;44.696;10.358;2024-03-02T01:14:49;99024.19;;;38.57;31.87
74524;BME280;63074;44.696;10.358;2024-03-02T01:17:16;99017.28;;;38.45;31.79
74524;BME280;63074;44.696;10.358;2024-03-02T01:19:42;99015.81;;;37.73;32.57
74524;BME280;63074;44.696;10.358;2024-03-02T01:22:08;99021.25;;;37.64;33.00
74524;BME280;63074;44.696;10.358;2024-03-02T01:24:34;99023.13;;;38.50;31.96
74524;BME280;63074;44.696;10.358;2024-03-02T01:27:01;99024.19;;;38.57;31.88
74524;BME280;63074;44.696;10.358;2024-03-02T01:29:27;99018.44;;;38.35;32.20
74524;BME280;63074;44.696;10.358;2024-03-02T01:31:53;99019.59;;;38.08;32.19
74524;BME280;63074;44.696;10.358;2024-03-02T01:34:19;99020.44;;;37.35;32.98
74524;BME280;63074;44.696;10.358;2024-03-02T01:36:46;99021.41;;;38.15;32.50
74524;BME280;63074;44.696;10.358;2024-03-02T01:39:12;99009.69;;;36.68;33.46
74524;BME280;63074;44.696;10.358;2024-03-02T01:41:38;99009.75;;;37.46;33.21
74524;BME280;63074;44.696;10.358;2024-03-02T01:44:05;99022.66;;;37.56;32.90
74524;BME280;63074;44.696;10.358;2024-03-02T01:46:31;99016.34;;;37.39;33.00
74524;BME280;63074;44.696;10.358;2024-03-02T01:48:57;99014.38;;;37.24;33.63
74524;BME280;63074;44.696;10.358;2024-03-02T01:51:23;99017.97;;;37.24;33.60
74524;BME280;63074;44.696;10.358;2024-03-02T01:53:49;99015.41;;;37.59;32.70
74524;BME280;63074;44.696;10.358;2024-03-02T01:56:16;99011.78;;;38.16;32.21
74524;BME280;63074;44.696;10.358;2024-03-02T01:58:42;99016.78;;;37.96;32.59
74524;BME280;63074;44.696;10.358;2024-03-02T02:01:10;99015.34;;;38.04;32.22
74524;BME280;63074;44.696;10.358;2024-03-02T02:03:36;99016.78;;;37.96;32.66
74524;BME280;63074;44.696;10.358;2024-03-02T02:06:03;99016.34;;;38.10;32.03
74524;BME280;63074;44.696;10.358;2024-03-02T02:08:29;99017.31;;;37.91;32.68
74524;BME280;63074;44.696;10.358;2024-03-02T02:10:55;99018.41;;;38.47;31.88
74524;BME280;63074;44.696;10.358;2024-03-02T02:13:21;99018.66;;;38.40;32.21
74524;BME280;63074;44.696;10.358;2024-03-02T02:15:48;99013.59;;;38.35;31.96
74524;BME280;63074;44.696;10.358;2024-03-02T02:18:14;99009.78;;;38.42;32.00
74524;BME280;63074;44.696;10.358;2024-03-02T02:20:40;99009.31;;;37.47;32.75
74524;BME280;63074;44.696;10.358;2024-03-02T02:23:06;99009.66;;;38.20;32.24
74524;BME280;63074;44.696;10.358;2024-03-02T02:25:35;99010.03;;;37.80;32.67
74524;BME280;63074;44.696;10.358;2024-03-02T02:28:01;99005.66;;;38.59;32.15
74524;BME280;63074;44.696;10.358;2024-03-02T02:30:29;99013.25;;;38.33;31.93
74524;BME280;63074;44.696;10.358;2024-03-02T02:32:56;99008.53;;;37.76;32.10
74524;BME280;63074;44.696;10.358;2024-03-02T02:35:23;99003.28;;;37.91;32.49
74524;BME280;63074;44.696;10.358;2024-03-02T02:37:54;99000.44;;;38.20;32.21
74524;BME280;63074;44.696;10.358;2024-03-02T02:40:20;99002.16;;;37.75;32.23
74524;BME280;63074;44.696;10.358;2024-03-02T02:42:47;99002.13;;;37.46;32.46
74524;BME280;63074;44.696;10.358;2024-03-02T02:45:13;99003.19;;;37.65;32.47
74524;BME280;63074;44.696;10.358;2024-03-02T02:47:41;98996.09;;;37.77;32.81
74524;BME280;63074;44.696;10.358;2024-03-02T02:50:08;99008.13;;;37.61;32.74
74524;BME280;63074;44.696;10.358;2024-03-02T02:52:35;98998.94;;;37.61;32.86
74524;BME280;63074;44.696;10.358;2024-03-02T02:55:06;99002.06;;;37.34;33.02
74524;BME280;63074;44.696;10.358;2024-03-02T02:57:33;99000.91;;;38.18;31.93
74524;BME280;63074;44.696;10.358;2024-03-02T03:00:09;98992.00;;;38.07;31.72
74524;BME280;63074;44.696;10.358;2024-03-02T03:02:37;98995.94;;;38.09;32.10
74524;BME280;63074;44.696;10.358;2024-03-02T03:05:14;98990.41;;;37.51;32.51
74524;BME280;63074;44.696;10.358;2024-03-02T03:07:40;98999.25;;;37.50;32.69
74524;BME280;63074;44.696;10.358;2024-03-02T03:10:08;99000.34;;;38.23;32.23
74524;BME280;63074;44.696;10.358;2024-03-02T03:12:35;99003.75;;;36.99;33.13
74524;BME280;63074;44.696;10.358;2024-03-02T03:15:02;99006.19;;;38.29;31.96
74524;BME280;63074;44.696;10.358;2024-03-02T03:17:29;99000.66;;;37.42;33.09
74524;BME280;63074;44.696;10.358;2024-03-02T03:19:56;98997.88;;;37.55;32.99
74524;BME280;63074;44.696;10.358;2024-03-02T03:22:23;98989.44;;;37.42;33.02
74524;BME280;63074;44.696;10.358;2024-03-02T03:24:49;98998.03;;;37.64;32.61
74524;BME280;63074;44.696;10.358;2024-03-02T03:27:15;99007.53;;;36.92;33.50
74524;BME280;63074;44.696;10.358;2024-03-02T03:29:41;99008.31;;;37.09;33.56
74524;BME280;63074;44.696;10.358;2024-03-02T03:32:08;99004.06;;;37.49;32.99
74524;BME280;63074;44.696;10.358;2024-03-02T03:34:35;99003.63;;;37.51;32.84
74524;BME280;63074;44.696;10.358;2024-03-02T03:37:01;99017.31;;;37.00;33.04
74524;BME280;63074;44.696;10.358;2024-03-02T03:39:28;99007.75;;;37.75;32.79
74524;BME280;63074;44.696;10.358;2024-03-02T03:41:56;99014.53;;;37.00;33.04
74524;BME280;63074;44.696;10.358;2024-03-02T03:44:23;99009.13;;;36.77;33.33
74524;BME280;63074;44.696;10.358;2024-03-02T03:46:49;99016.09;;;37.17;33.06
74524;BME280;63074;44.696;10.358;2024-03-02T03:49:15;99022.41;;;36.73;33.26
74524;BME280;63074;44.696;10.358;2024-03-02T03:51:41;99024.00;;;36.90;33.31
74524;BME280;63074;44.696;10.358;2024-03-02T03:54:07;99022.31;;;37.09;33.34
74524;BME280;63074;44.696;10.358;2024-03-02T03:56:34;99016.44;;;37.65;32.38
74524;BME280;63074;44.696;10.358;2024-03-02T03:59:00;99021.00;;;36.81;32.99
74524;BME280;63074;44.696;10.358;2024-03-02T04:01:26;99019.28;;;37.48;33.05
74524;BME280;63074;44.696;10.358;2024-03-02T04:03:52;99024.06;;;37.03;33.26
74524;BME280;63074;44.696;10.358;2024-03-02T04:06:18;99020.38;;;37.06;33.05
74524;BME280;63074;44.696;10.358;2024-03-02T04:08:45;99025.91;;;36.93;32.84
74524;BME280;63074;44.696;10.358;2024-03-02T04:11:11;99023.59;;;36.72;33.77
74524;BME280;63074;44.696;10.358;2024-03-02T04:13:37;99031.19;;;36.71;33.58
74524;BME280;63074;44.696;10.358;2024-03-02T04:16:04;99024.84;;;37.36;33.17
74524;BME280;63074;44.696;10.358;2024-03-02T04:18:31;99031.50;;;37.26;32.83
74524;BME280;63074;44.696;10.358;2024-03-02T04:20:58;99029.75;;;37.15;33.23
74524;BME280;63074;44.696;10.358;2024-03-02T04:23:26;99033.25;;;37.03;33.59
74524;BME280;63074;44.696;10.358;2024-03-02T04:25:52;99038.78;;;36.91;33.55
74524;BME280;63074;44.696;10.358;2024-03-02T04:28:18;99035.81;;;37.88;32.47
74524;BME280;63074;44.696;10.358;2024-03-02T04:30:44;99036.16;;;37.61;32.61
74524;BME280;63074;44.696;10.358;2024-03-02T04:33:10;99038.47;;;36.69;33.17
74524;BME280;63074;44.696;10.358;2024-03-02T04:35:37;99041.41;;;36.45;33.90
74524;BME280;63074;44.696;10.358;2024-03-02T04:38:03;99046.81;;;37.37;32.95
74524;BME280;63074;44.696;10.358;2024-03-02T04:40:30;99047.09;;;36.22;33.32
74524;BME280;63074;44.696;10.358;2024-03-02T04:42:56;99040.47;;;36.52;33.59
74524;BME280;63074;44.696;10.358;2024-03-02T04:45:24;99041.47;;;37.10;33.01
74524;BME280;63074;44.696;10.358;2024-03-02T04:47:50;99050.22;;;36.96;33.40
74524;BME280;63074;44.696;10.358;2024-03-02T04:50:17;99039.25;;;36.69;32.91
74524;BME280;63074;44.696;10.358;2024-03-02T04:52:43;99038.56;;;36.65;33.72
74524;BME280;63074;44.696;10.358;2024-03-02T04:55:09;99045.41;;;37.29;32.92
74524;BME280;63074;44.696;10.358;2024-03-02T04:57:35;99044.53;;;36.31;33.67
74524;BME280;63074;44.696;10.358;2024-03-02T05:00:02;99041.75;;;36.31;34.19
74524;BME280;63074;44.696;10.358;2024-03-02T05:02:32;99047.34;;;36.83;33.40
74524;BME280;63074;44.696;10.358;2024-03-02T05:04:59;99054.22;;;36.27;34.19
74524;BME280;63074;44.696;10.358;2024-03-02T05:07:28;99046.41;;;35.98;33.87
74524;BME280;63074;44.696;10.358;2024-03-02T05:09:54;99050.31;;;36.20;34.11
74524;BME280;63074;44.696;10.358;2024-03-02T05:12:20;99055.06;;;36.24;33.96
74524;BME280;63074;44.696;10.358;2024-03-02T05:15:06;99053.59;;;36.71;33.67
74524;BME280;63074;44.696;10.358;2024-03-02T05:17:33;99062.09;;;36.12;33.81
74524;BME280;63074;44.696;10.358;2024-03-02T05:19:59;99058.81;;;36.89;33.43
74524;BME280;63074;44.696;10.358;2024-03-02T05:22:25;99067.38;;;36.98;33.51
74524;BME280;63074;44.696;10.358;2024-03-02T05:24:52;99068.56;;;36.29;33.61
74524;BME280;63074;44.696;10.358;2024-03-02T05:27:18;99072.72;;;36.93;33.11
74524;BME280;63074;44.696;10.358;2024-03-02T05:29:44;99062.81;;;35.53;33.89
74524;BME280;63074;44.696;10.358;2024-03-02T05:32:10;99074.16;;;36.29;34.05
74524;BME280;63074;44.696;10.358;2024-03-02T05:34:37;99081.16;;;37.54;32.79
74524;BME280;63074;44.696;10.358;2024-03-02T05:37:03;99082.16;;;36.99;32.68
74524;BME280;63074;44.696;10.358;2024-03-02T05:39:29;99082.78;;;36.54;33.84
74524;BME280;63074;44.696;10.358;2024-03-02T05:41:55;99081.81;;;36.05;33.63
74524;BME280;63074;44.696;10.358;2024-03-02T05:44:21;99086.34;;;36.74;33.30
74524;BME280;63074;44.696;10.358;2024-03-02T05:46:48;99087.19;;;36.71;33.12
74524;BME280;63074;44.696;10.358;2024-03-02T05:49:14;99095.13;;;37.41;33.28
74524;BME280;63074;44.696;10.358;2024-03-02T05:51:40;99084.25;;;36.23;33.71
74524;BME280;63074;44.696;10.358;2024-03-02T05:54:07;99088.28;;;37.10;33.03
74524;BME280;63074;44.696;10.358;2024-03-02T05:56:33;99092.88;;;37.20;32.90
74524;BME280;63074;44.696;10.358;2024-03-02T05:58:59;99104.56;;;36.99;33.27
74524;BME280;63074;44.696;10.358;2024-03-02T06:01:44;99097.28;;;35.90;34.01
74524;BME280;63074;44.696;10.358;2024-03-02T06:04:11;99095.16;;;36.37;33.99
74524;BME280;63074;44.696;10.358;2024-03-02T06:06:37;99106.31;;;36.57;33.50
74524;BME280;63074;44.696;10.358;2024-03-02T06:09:05;99107.38;;;37.15;32.87
74524;BME280;63074;44.696;10.358;2024-03-02T06:11:33;99110.28;;;37.28;32.42
74524;BME280;63074;44.696;10.358;2024-03-02T06:14:00;99110.78;;;37.06;32.73
74524;BME280;63074;44.696;10.358;2024-03-02T06:16:26;99114.16;;;36.81;33.11
74524;BME280;63074;44.696;10.358;2024-03-02T06:18:52;99112.88;;;37.02;33.17
74524;BME280;63074;44.696;10.358;2024-03-02T06:21:20;99120.22;;;36.96;32.92
74524;BME280;63074;44.696;10.358;2024-03-02T06:23:46;99117.59;;;37.05;33.09
74524;BME280;63074;44.696;10.358;2024-03-02T06:26:12;99115.00;;;37.14;32.86
74524;BME280;63074;44.696;10.358;2024-03-02T06:28:39;99129.09;;;37.43;32.55
74524;BME280;63074;44.696;10.358;2024-03-02T06:31:05;99121.19;;;37.55;32.56
74524;BME280;63074;44.696;10.358;2024-03-02T06:33:31;99127.13;;;38.18;31.52
74524;BME280;63074;44.696;10.358;2024-03-02T06:35:57;99137.69;;;37.98;31.62
74524;BME280;63074;44.696;10.358;2024-03-02T06:38:23;99134.31;;;37.58;31.84
74524;BME280;63074;44.696;10.358;2024-03-02T06:40:49;99136.56;;;36.98;32.44
74524;BME280;63074;44.696;10.358;2024-03-02T06:43:16;99141.06;;;37.11;32.40
74524;BME280;63074;44.696;10.358;2024-03-02T06:45:42;99142.50;;;37.36;32.49
74524;BME280;63074;44.696;10.358;2024-03-02T06:48:08;99144.97;;;37.95;32.40
74524;BME280;63074;44.696;10.358;2024-03-02T06:50:34;99142.94;;;37.50;32.57
74524;BME280;63074;44.696;10.358;2024-03-02T06:53:00;99154.41;;;37.40;32.41
74524;BME280;63074;44.696;10.358;2024-03-02T06:55:26;99151.00;;;36.96;32.78
74524;BME280;63074;44.696;10.358;2024-03-02T06:57:53;99151.38;;;36.98;33.20
74524;BME280;63074;44.696;10.358;2024-03-02T07:00:19;99150.56;;;36.98;33.08
74524;BME280;63074;44.696;10.358;2024-03-02T07:02:46;99158.47;;;37.03;33.09
74524;BME280;63074;44.696;10.358;2024-03-02T07:05:13;99155.88;;;37.28;32.75
74524;BME280;63074;44.696;10.358;2024-03-02T07:07:39;99159.31;;;37.36;32.93
74524;BME280;63074;44.696;10.358;2024-03-02T07:10:06;99153.78;;;36.80;33.06
74524;BME280;63074;44.696;10.358;2024-03-02T07:12:33;99175.41;;;37.32;32.93
74524;BME280;63074;44.696;10.358;2024-03-02T07:14:59;99171.47;;;37.29;32.76
74524;BME280;63074;44.696;10.358;2024-03-02T07:17:28;99172.41;;;37.55;31.98
74524;BME280;63074;44.696;10.358;2024-03-02T07:19:55;99173.66;;;36.85;32.98
74524;BME280;63074;44.696;10.358;2024-03-02T07:22:21;99178.88;;;37.84;32.20
74524;BME280;63074;44.696;10.358;2024-03-02T07:24:47;99180.31;;;37.44;32.49
74524;BME280;63074;44.696;10.358;2024-03-02T07:27:14;99190.03;;;37.56;32.11
74524;BME280;63074;44.696;10.358;2024-03-02T07:29:41;99196.50;;;37.85;32.05
74524;BME280;63074;44.696;10.358;2024-03-02T07:32:08;99193.44;;;37.63;32.42
74524;BME280;63074;44.696;10.358;2024-03-02T07:34:35;99199.22;;;37.89;31.82
74524;BME280;63074;44.696;10.358;2024-03-02T07:37:01;99202.72;;;37.93;32.13
74524;BME280;63074;44.696;10.358;2024-03-02T07:39:28;99208.41;;;37.89;31.98
74524;BME280;63074;44.696;10.358;2024-03-02T07:41:55;99209.84;;;38.26;31.76
74524;BME280;63074;44.696;10.358;2024-03-02T07:44:21;99207.53;;;37.92;31.74
74524;BME280;63074;44.696;10.358;2024-03-02T07:46:48;99206.09;;;37.71;32.17
74524;BME280;63074;44.696;10.358;2024-03-02T07:49:18;99206.41;;;37.25;32.37
74524;BME280;63074;44.696;10.358;2024-03-02T07:51:45;99203.59;;;36.29;33.94
74524;BME280;63074;44.696;10.358;2024-03-02T07:54:11;99204.47;;;37.38;32.31
74524;BME280;63074;44.696;10.358;2024-03-02T07:56:37;99216.28;;;38.10;32.29
74524;BME280;63074;44.696;10.358;2024-03-02T07:59:04;99218.66;;;37.63;32.42
74524;BME280;63074;44.696;10.358;2024-03-02T08:01:31;99210.84;;;37.55;32.45
74524;BME280;63074;44.696;10.358;2024-03-02T08:03:59;99218.28;;;38.26;31.79
74524;BME280;63074;44.696;10.358;2024-03-02T08:06:26;99220.75;;;37.59;32.37
74524;BME280;63074;44.696;10.358;2024-03-02T08:08:57;99221.41;;;37.67;32.07
74524;BME280;63074;44.696;10.358;2024-03-02T08:11:24;99224.81;;;37.91;31.91
74524;BME280;63074;44.696;10.358;2024-03-02T08:13:50;99230.59;;;37.67;32.33
74524;BME280;63074;44.696;10.358;2024-03-02T08:16:18;99227.50;;;37.94;32.20
74524;BME280;63074;44.696;10.358;2024-03-02T08:18:50;99242.81;;;38.22;31.75
74524;BME280;63074;44.696;10.358;2024-03-02T08:21:17;99237.22;;;38.51;31.92
74524;BME280;63074;44.696;10.358;2024-03-02T08:23:44;99236.84;;;38.78;31.22
74524;BME280;63074;44.696;10.358;2024-03-02T08:26:10;99242.19;;;38.31;31.86
74524;BME280;63074;44.696;10.358;2024-03-02T08:28:37;99239.41;;;38.60;31.76
74524;BME280;63074;44.696;10.358;2024-03-02T08:31:04;99240.53;;;39.16;30.89
74524;BME280;63074;44.696;10.358;2024-03-02T08:33:30;99245.81;;;38.44;31.44
74524;BME280;63074;44.696;10.358;2024-03-02T08:35:57;99241.41;;;38.30;31.74
74524;BME280;63074;44.696;10.358;2024-03-02T08:38:23;99234.78;;;38.08;32.02
74524;BME280;63074;44.696;10.358;2024-03-02T08:40:50;99240.69;;;38.84;31.31
74524;BME280;63074;44.696;10.358;2024-03-02T08:43:17;99240.59;;;39.00;31.38
74524;BME280;63074;44.696;10.358;2024-03-02T08:45:43;99249.78;;;39.55;30.85
74524;BME280;63074;44.696;10.358;2024-03-02T08:48:10;99244.78;;;38.96;31.28
74524;BME280;63074;44.696;10.358;2024-03-02T08:50:37;99250.19;;;39.28;31.04
74524;BME280;63074;44.696;10.358;2024-03-02T08:53:06;99251.88;;;39.38;30.67
74524;BME280;63074;44.696;10.358;2024-03-02T08:55:32;99259.13;;;38.56;31.15
74524;BME280;63074;44.696;10.358;2024-03-02T08:57:58;99259.41;;;39.29;31.29
74524;BME280;63074;44.696;10.358;2024-03-02T09:00:25;99262.47;;;39.22;30.89
74524;BME280;63074;44.696;10.358;2024-03-02T09:02:51;99262.72;;;39.53;30.84
74524;BME280;63074;44.696;10.358;2024-03-02T09:05:17;99255.47;;;39.01;31.47
74524;BME280;63074;44.696;10.358;2024-03-02T09:07:44;99263.22;;;39.09;31.42
74524;BME280;63074;44.696;10.358;2024-03-02T09:10:10;99265.63;;;39.62;31.18
74524;BME280;63074;44.696;10.358;2024-03-02T09:12:36;99263.47;;;39.28;30.75
74524;BME280;63074;44.696;10.358;2024-03-02T09:15:03;99268.63;;;39.93;30.63
74524;BME280;63074;44.696;10.358;2024-03-02T09:17:30;99269.16;;;40.13;30.03
74524;BME280;63074;44.696;10.358;2024-03-02T09:19:56;99258.09;;;39.46;30.72
74524;BME280;63074;44.696;10.358;2024-03-02T09:22:23;99268.88;;;40.20;30.43
74524;BME280;63074;44.696;10.358;2024-03-02T09:24:49;99260.09;;;39.83;30.37
74524;BME280;63074;44.696;10.358;2024-03-02T09:27:15;99264.38;;;39.75;30.58
74524;BME280;63074;44.696;10.358;2024-03-02T09:29:41;99272.28;;;38.30;32.17
74524;BME280;63074;44.696;10.358;2024-03-02T09:32:08;99265.72;;;38.49;31.80
74524;BME280;63074;44.696;10.358;2024-03-02T09:34:38;99268.84;;;38.39;32.50
74524;BME280;63074;44.696;10.358;2024-03-02T09:37:04;99266.03;;;39.09;31.56
74524;BME280;63074;44.696;10.358;2024-03-02T09:39:30;99277.97;;;39.39;31.43
74524;BME280;63074;44.696;10.358;2024-03-02T09:42:00;99274.31;;;38.13;31.34
74524;BME280;63074;44.696;10.358;2024-03-02T09:44:26;99270.00;;;39.63;30.98
74524;BME280;63074;44.696;10.358;2024-03-02T09:46:53;99276.75;;;38.86;31.25
74524;BME280;63074;44.696;10.358;2024-03-02T09:49:19;99275.94;;;39.39;31.08
74524;BME280;63074;44.696;10.358;2024-03-02T09:51:48;99273.22;;;40.12;30.68
74524;BME280;63074;44.696;10.358;2024-03-02T09:54:16;99281.28;;;41.32;29.38
74524;BME280;63074;44.696;10.358;2024-03-02T09:56:42;99287.84;;;41.60;28.99
74524;BME280;63074;44.696;10.358;2024-03-02T09:59:08;99283.56;;;39.13;31.07
74524;BME280;63074;44.696;10.358;2024-03-02T10:01:35;99282.91;;;39.98;30.53
74524;BME280;63074;44.696;10.358;2024-03-02T10:04:01;99290.53;;;38.67;31.22
74524;BME280;63074;44.696;10.358;2024-03-02T10:06:30;99290.34;;;38.87;31.05
74524;BME280;63074;44.696;10.358;2024-03-02T10:08:56;99292.97;;;38.94;31.61
74524;BME280;63074;44.696;10.358;2024-03-02T10:11:30;99293.41;;;38.93;31.59
74524;BME280;63074;44.696;10.358;2024-03-02T10:16:41;99289.44;;;39.32;31.44
74524;BME280;63074;44.696;10.358;2024-03-02T10:21:53;99298.66;;;39.32;30.67
74524;BME280;63074;44.696;10.358;2024-03-02T10:24:21;99296.47;;;38.40;31.37
74524;BME280;63074;44.696;10.358;2024-03-02T10:26:48;99289.22;;;37.78;32.41
74524;BME280;63074;44.696;10.358;2024-03-02T10:29:15;99290.97;;;38.49;31.96
74524;BME280;63074;44.696;10.358;2024-03-02T10:31:45;99289.91;;;38.31;32.27
74524;BME280;63074;44.696;10.358;2024-03-02T10:34:12;99288.09;;;37.39;32.87
74524;BME280;63074;44.696;10.358;2024-03-02T10:36:42;99290.69;;;38.89;31.38
74524;BME280;63074;44.696;10.358;2024-03-02T10:39:09;99297.00;;;38.19;32.30
74524;BME280;63074;44.696;10.358;2024-03-02T10:41:37;99292.97;;;37.88;32.96
74524;BME280;63074;44.696;10.358;2024-03-02T10:44:05;99289.31;;;37.38;33.11
74524;BME280;63074;44.696;10.358;2024-03-02T10:46:33;99281.09;;;37.47;33.61
74524;BME280;63074;44.696;10.358;2024-03-02T10:49:00;99299.59;;;38.59;32.30
74524;BME280;63074;44.696;10.358;2024-03-02T10:51:28;99290.84;;;37.03;33.76
74524;BME280;63074;44.696;10.358;2024-03-02T10:54:01;99288.22;;;36.76;33.55
74524;BME280;63074;44.696;10.358;2024-03-02T10:56:37;99299.59;;;37.45;33.73
74524;BME280;63074;44.696;10.358;2024-03-02T10:59:17;99302.91;;;37.40;33.13
74524;BME280;63074;44.696;10.358;2024-03-02T11:01:48;99301.06;;;37.13;33.14
74524;BME280;63074;44.696;10.358;2024-03-02T11:04:19;99300.09;;;37.40;32.62
74524;BME280;63074;44.696;10.358;2024-03-02T11:06:49;99303.66;;;38.09;32.61
74524;BME280;63074;44.696;10.358;2024-03-02T11:09:21;99296.56;;;37.72;32.96
74524;BME280;63074;44.696;10.358;2024-03-02T11:12:02;99289.59;;;36.45;34.55
74524;BME280;63074;44.696;10.358;2024-03-02T11:14:31;99297.44;;;37.69;33.48
74524;BME280;63074;44.696;10.358;2024-03-02T11:17:02;99289.09;;;36.93;33.88
74524;BME280;63074;44.696;10.358;2024-03-02T11:19:30;99275.59;;;37.44;34.27
74524;BME280;63074;44.696;10.358;2024-03-02T11:21:57;99286.84;;;37.76;33.36
74524;BME280;63074;44.696;10.358;2024-03-02T11:26:53;99284.66;;;37.84;33.06
74524;BME280;63074;44.696;10.358;2024-03-02T11:32:05;99282.28;;;36.94;34.02
74524;BME280;63074;44.696;10.358;2024-03-02T11:34:33;99275.88;;;37.98;33.40
74524;BME280;63074;44.696;10.358;2024-03-02T11:37:01;99286.47;;;38.97;32.39
74524;BME280;63074;44.696;10.358;2024-03-02T11:39:29;99281.47;;;38.31;32.83
74524;BME280;63074;44.696;10.358;2024-03-02T11:41:58;99285.78;;;37.70;32.61
74524;BME280;63074;44.696;10.358;2024-03-02T11:44:27;99285.69;;;37.90;32.71
74524;BME280;63074;44.696;10.358;2024-03-02T11:47:06;99290.16;;;38.04;32.61
74524;BME280;63074;44.696;10.358;2024-03-02T11:49:58;99282.97;;;38.93;31.93
74524;BME280;63074;44.696;10.358;2024-03-02T11:52:26;99280.22;;;39.19;31.60
74524;BME280;63074;44.696;10.358;2024-03-02T11:54:54;99279.13;;;39.54;31.59
74524;BME280;63074;44.696;10.358;2024-03-02T11:57:21;99271.28;;;38.37;32.38
74524;BME280;63074;44.696;10.358;2024-03-02T11:59:48;99275.78;;;38.34;32.59
74524;BME280;63074;44.696;10.358;2024-03-02T12:02:22;99273.09;;;38.43;32.36
74524;BME280;63074;44.696;10.358;2024-03-02T12:04:49;99268.91;;;37.54;33.16
74524;BME280;63074;44.696;10.358;2024-03-02T12:07:24;99266.59;;;38.46;32.79
74524;BME280;63074;44.696;10.358;2024-03-02T12:10:00;99269.91;;;38.87;31.89
74524;BME280;63074;44.696;10.358;2024-03-02T12:12:27;99260.16;;;38.91;31.42
74524;BME280;63074;44.696;10.358;2024-03-02T12:14:54;99260.09;;;38.78;32.74
74524;BME280;63074;44.696;10.358;2024-03-02T12:17:22;99256.28;;;39.39;31.77
74524;BME280;63074;44.696;10.358;2024-03-02T12:19:49;99252.84;;;37.91;32.96
74524;BME280;63074;44.696;10.358;2024-03-02T12:22:15;99266.66;;;38.30;32.59
74524;BME280;63074;44.696;10.358;2024-03-02T12:24:42;99269.47;;;40.15;31.03
74524;BME280;63074;44.696;10.358;2024-03-02T12:27:11;99265.75;;;40.18;30.41
74524;BME280;63074;44.696;10.358;2024-03-02T12:29:39;99272.25;;;39.80;31.03
74524;BME280;63074;44.696;10.358;2024-03-02T12:32:06;99259.72;;;38.35;33.61
74524;BME280;63074;44.696;10.358;2024-03-02T12:34:32;99255.28;;;36.84;34.37
74524;BME280;63074;44.696;10.358;2024-03-02T12:36:59;99257.22;;;38.08;33.32
74524;BME280;63074;44.696;10.358;2024-03-02T12:39:25;99248.63;;;39.65;31.22
74524;BME280;63074;44.696;10.358;2024-03-02T12:41:53;99243.22;;;39.71;31.27
74524;BME280;63074;44.696;10.358;2024-03-02T12:44:20;99228.22;;;39.99;31.35
74524;BME280;63074;44.696;10.358;2024-03-02T12:46:47;99234.34;;;40.76;30.61
74524;BME280;63074;44.696;10.358;2024-03-02T12:49:15;99222.38;;;40.72;30.02
74524;BME280;63074;44.696;10.358;2024-03-02T12:51:46;99225.16;;;42.05;30.48
74524;BME280;63074;44.696;10.358;2024-03-02T12:54:17;99217.41;;;44.78;28.13
74524;BME280;63074;44.696;10.358;2024-03-02T12:56:44;99234.28;;;43.81;28.71
74524;BME280;63074;44.696;10.358;2024-03-02T12:59:23;99214.59;;;48.35;25.79
74524;BME280;63074;44.696;10.358;2024-03-02T13:01:53;99237.50;;;48.75;25.93
74524;BME280;63074;44.696;10.358;2024-03-02T13:04:27;99261.56;;;47.49;25.94
74524;BME280;63074;44.696;10.358;2024-03-02T13:06:57;99249.44;;;43.93;27.78